sensor_id;sensor_type;location;lat;lon;timestamp;P1;durP1;ratioP1;P2;durP2;ratioP2
20491;SDS011;10404;51.468;6.762;2023-11-19T02:42:50;6.43;;;5.53;;
20491;SDS011;10404;51.468;6.762;2023-11-19T02:45:16;5.57;;;4.80;;
20491;SDS011;10404;51.468;6.762;2023-11-19T02:47:42;5.85;;;3.75;;
20491;SDS011;10404;51.468;6.762;2023-11-19T02:50:10;5.40;;;4.25;;
20491;SDS011;10404;51.468;6.762;2023-11-19T02:52:40;6.97;;;4.28;;
20491;SDS011;10404;51.468;6.762;2023-11-19T02:55:11;8.48;;;4.80;;
20491;SDS011;10404;51.468;6.762;2023-11-19T02:57:40;6.38;;;4.30;;
20491;SDS011;10404;51.468;6.762;2023-11-19T03:00:13;5.85;;;4.00;;
20491;SDS011;10404;51.468;6.762;2023-11-19T03:02:42;5.63;;;3.55;;
20491;SDS011;10404;51.468;6.762;2023-11-19T03:05:11;5.25;;;3.33;;
20491;SDS011;10404;51.468;6.762;2023-11-19T03:07:40;3.35;;;3.00;;
20491;SDS011;10404;51.468;6.762;2023-11-19T03:10:07;5.93;;;3.67;;
20491;SDS011;10404;51.468;6.762;2023-11-19T03:12:40;3.80;;;2.95;;
20491;SDS011;10404;51.468;6.762;2023-11-19T03:15:07;3.63;;;3.00;;
20491;SDS011;10404;51.468;6.762;2023-11-19T03:17:35;5.93;;;2.45;;
20491;SDS011;10404;51.468;6.762;2023-11-19T03:20:02;5.43;;;4.00;;
20491;SDS011;10404;51.468;6.762;2023-11-19T03:22:31;5.05;;;3.10;;
20491;SDS011;10404;51.468;6.762;2023-11-19T03:24:59;3.53;;;3.22;;
20491;SDS011;10404;51.468;6.762;2023-11-19T03:27:25;3.95;;;3.00;;
20491;SDS011;10404;51.468;6.762;2023-11-19T03:29:50;5.72;;;3.60;;
20491;SDS011;10404;51.468;6.762;2023-11-19T03:32:16;3.60;;;3.30;;
20491;SDS011;10404;51.468;6.762;2023-11-19T03:34:42;3.47;;;3.03;;
20491;SDS011;10404;51.468;6.762;2023-11-19T03:37:08;6.35;;;3.30;;
20491;SDS011;10404;51.468;6.762;2023-11-19T03:39:34;2.95;;;2.75;;
20491;SDS011;10404;51.468;6.762;2023-11-19T03:42:00;4.32;;;3.22;;
20491;SDS011;10404;51.468;6.762;2023-11-19T03:44:26;5.88;;;3.90;;
20491;SDS011;10404;51.468;6.762;2023-11-19T03:46:52;3.55;;;3.17;;
20491;SDS011;10404;51.468;6.762;2023-11-19T03:49:18;4.22;;;3.50;;
20491;SDS011;10404;51.468;6.762;2023-11-19T03:51:43;5.43;;;2.60;;
20491;SDS011;10404;51.468;6.762;2023-11-19T03:54:09;7.20;;;3.25;;
20491;SDS011;10404;51.468;6.762;2023-11-19T03:56:35;4.50;;;2.72;;
20491;SDS011;10404;51.468;6.762;2023-11-19T03:59:00;6.35;;;4.07;;
20491;SDS011;10404;51.468;6.762;2023-11-19T04:01:26;5.82;;;2.70;;
20491;SDS011;10404;51.468;6.762;2023-11-19T04:03:52;5.40;;;4.45;;
20491;SDS011;10404;51.468;6.762;2023-11-19T04:06:17;5.18;;;3.38;;
20491;SDS011;10404;51.468;6.762;2023-11-19T04:08:43;4.00;;;2.40;;
20491;SDS011;10404;51.468;6.762;2023-11-19T04:11:10;6.82;;;3.65;;
20491;SDS011;10404;51.468;6.762;2023-11-19T04:13:35;5.60;;;2.78;;
20491;SDS011;10404;51.468;6.762;2023-11-19T04:16:01;4.13;;;3.33;;
20491;SDS011;10404;51.468;6.762;2023-11-19T04:18:27;5.75;;;2.97;;
20491;SDS011;10404;51.468;6.762;2023-11-19T04:20:52;7.70;;;4.80;;
20491;SDS011;10404;51.468;6.762;2023-11-19T04:23:18;8.85;;;4.85;;
20491;SDS011;10404;51.468;6.762;2023-11-19T04:25:44;8.35;;;2.92;;
20491;SDS011;10404;51.468;6.762;2023-11-19T04:28:09;6.65;;;3.53;;
20491;SDS011;10404;51.468;6.762;2023-11-19T04:30:35;6.68;;;2.65;;
20491;SDS011;10404;51.468;6.762;2023-11-19T04:33:02;6.82;;;4.50;;
20491;SDS011;10404;51.468;6.762;2023-11-19T04:35:28;7.05;;;2.78;;
20491;SDS011;10404;51.468;6.762;2023-11-19T04:37:54;7.50;;;3.30;;
20491;SDS011;10404;51.468;6.762;2023-11-19T04:40:22;7.28;;;3.00;;
20491;SDS011;10404;51.468;6.762;2023-11-19T04:42:48;7.30;;;3.63;;
20491;SDS011;10404;51.468;6.762;2023-11-19T04:45:14;7.93;;;4.43;;
20491;SDS011;10404;51.468;6.762;2023-11-19T04:47:41;9.70;;;3.20;;
20491;SDS011;10404;51.468;6.762;2023-11-19T04:50:07;7.18;;;3.33;;
20491;SDS011;10404;51.468;6.762;2023-11-19T04:52:38;7.25;;;2.90;;
20491;SDS011;10404;51.468;6.762;2023-11-19T04:55:10;7.30;;;3.97;;
20491;SDS011;10404;51.468;6.762;2023-11-19T04:57:41;5.47;;;3.13;;
20491;SDS011;10404;51.468;6.762;2023-11-19T05:00:07;6.20;;;3.35;;
20491;SDS011;10404;51.468;6.762;2023-11-19T05:02:35;9.30;;;3.80;;
20491;SDS011;10404;51.468;6.762;2023-11-19T05:07:29;7.60;;;2.88;;
20491;SDS011;10404;51.468;6.762;2023-11-19T05:09:55;10.15;;;5.40;;
20491;SDS011;10404;51.468;6.762;2023-11-19T05:12:28;11.43;;;3.40;;
20491;SDS011;10404;51.468;6.762;2023-11-19T05:14:57;6.93;;;4.82;;
20491;SDS011;10404;51.468;6.762;2023-11-19T05:17:23;7.07;;;2.63;;
20491;SDS011;10404;51.468;6.762;2023-11-19T05:19:49;9.52;;;3.45;;
20491;SDS011;10404;51.468;6.762;2023-11-19T05:22:14;5.93;;;3.47;;
20491;SDS011;10404;51.468;6.762;2023-11-19T05:24:40;7.50;;;3.60;;
20491;SDS011;10404;51.468;6.762;2023-11-19T05:27:06;10.45;;;3.95;;
20491;SDS011;10404;51.468;6.762;2023-11-19T05:29:33;7.00;;;3.00;;
20491;SDS011;10404;51.468;6.762;2023-11-19T05:31:59;8.10;;;4.30;;
20491;SDS011;10404;51.468;6.762;2023-11-19T05:34:24;9.27;;;4.35;;
20491;SDS011;10404;51.468;6.762;2023-11-19T05:36:50;9.68;;;3.95;;
20491;SDS011;10404;51.468;6.762;2023-11-19T05:39:16;9.93;;;3.38;;
20491;SDS011;10404;51.468;6.762;2023-11-19T05:41:46;11.02;;;3.55;;
20491;SDS011;10404;51.468;6.762;2023-11-19T05:44:12;10.68;;;4.07;;
20491;SDS011;10404;51.468;6.762;2023-11-19T05:46:37;11.85;;;3.10;;
20491;SDS011;10404;51.468;6.762;2023-11-19T05:49:07;11.63;;;3.10;;
20491;SDS011;10404;51.468;6.762;2023-11-19T05:51:36;8.85;;;3.22;;
20491;SDS011;10404;51.468;6.762;2023-11-19T05:54:03;7.82;;;3.47;;
20491;SDS011;10404;51.468;6.762;2023-11-19T05:56:31;8.75;;;2.78;;
20491;SDS011;10404;51.468;6.762;2023-11-19T05:58:58;12.25;;;4.57;;
20491;SDS011;10404;51.468;6.762;2023-11-19T06:01:26;10.88;;;2.88;;
20491;SDS011;10404;51.468;6.762;2023-11-19T06:03:52;12.57;;;4.88;;
20491;SDS011;10404;51.468;6.762;2023-11-19T06:06:18;8.73;;;3.90;;
20491;SDS011;10404;51.468;6.762;2023-11-19T06:08:44;11.48;;;3.70;;
20491;SDS011;10404;51.468;6.762;2023-11-19T06:11:10;10.32;;;4.10;;
20491;SDS011;10404;51.468;6.762;2023-11-19T06:13:40;9.40;;;3.55;;
20491;SDS011;10404;51.468;6.762;2023-11-19T06:16:05;7.57;;;3.47;;
20491;SDS011;10404;51.468;6.762;2023-11-19T06:18:32;10.18;;;3.00;;
20491;SDS011;10404;51.468;6.762;2023-11-19T06:20:58;9.57;;;4.20;;
20491;SDS011;10404;51.468;6.762;2023-11-19T06:23:23;7.60;;;2.67;;
20491;SDS011;10404;51.468;6.762;2023-11-19T06:25:49;8.63;;;3.70;;
20491;SDS011;10404;51.468;6.762;2023-11-19T06:28:14;9.30;;;4.18;;
20491;SDS011;10404;51.468;6.762;2023-11-19T06:30:40;12.40;;;3.50;;
20491;SDS011;10404;51.468;6.762;2023-11-19T06:33:06;11.25;;;6.25;;
20491;SDS011;10404;51.468;6.762;2023-11-19T06:35:32;13.52;;;3.97;;
20491;SDS011;10404;51.468;6.762;2023-11-19T06:38:04;8.93;;;4.55;;
20491;SDS011;10404;51.468;6.762;2023-11-19T06:40:33;10.55;;;3.45;;
20491;SDS011;10404;51.468;6.762;2023-11-19T06:43:00;9.52;;;4.20;;
20491;SDS011;10404;51.468;6.762;2023-11-19T06:45:26;8.98;;;3.85;;
20491;SDS011;10404;51.468;6.762;2023-11-19T06:47:51;10.73;;;4.82;;
20491;SDS011;10404;51.468;6.762;2023-11-19T06:50:17;8.98;;;3.45;;
20491;SDS011;10404;51.468;6.762;2023-11-19T06:52:44;10.30;;;3.20;;
20491;SDS011;10404;51.468;6.762;2023-11-19T06:55:11;7.15;;;3.58;;
20491;SDS011;10404;51.468;6.762;2023-11-19T06:57:36;10.25;;;3.90;;
20491;SDS011;10404;51.468;6.762;2023-11-19T07:00:02;10.85;;;3.53;;
20491;SDS011;10404;51.468;6.762;2023-11-19T07:02:30;8.57;;;3.20;;
20491;SDS011;10404;51.468;6.762;2023-11-19T07:04:57;9.85;;;3.95;;
20491;SDS011;10404;51.468;6.762;2023-11-19T07:07:23;10.10;;;3.30;;
20491;SDS011;10404;51.468;6.762;2023-11-19T07:09:49;11.25;;;4.80;;
20491;SDS011;10404;51.468;6.762;2023-11-19T07:12:15;10.10;;;3.45;;
20491;SDS011;10404;51.468;6.762;2023-11-19T07:14:41;11.52;;;3.38;;
20491;SDS011;10404;51.468;6.762;2023-11-19T07:17:07;8.38;;;3.75;;
20491;SDS011;10404;51.468;6.762;2023-11-19T07:19:33;10.38;;;2.97;;
20491;SDS011;10404;51.468;6.762;2023-11-19T07:22:01;12.82;;;4.47;;
20491;SDS011;10404;51.468;6.762;2023-11-19T07:24:27;10.10;;;4.15;;
20491;SDS011;10404;51.468;6.762;2023-11-19T07:26:56;8.23;;;3.42;;
20491;SDS011;10404;51.468;6.762;2023-11-19T07:29:22;10.88;;;3.03;;
20491;SDS011;10404;51.468;6.762;2023-11-19T07:31:50;9.35;;;2.72;;
20491;SDS011;10404;51.468;6.762;2023-11-19T07:34:16;10.40;;;3.47;;
20491;SDS011;10404;51.468;6.762;2023-11-19T07:36:42;9.73;;;3.67;;
20491;SDS011;10404;51.468;6.762;2023-11-19T07:39:08;11.77;;;3.50;;
20491;SDS011;10404;51.468;6.762;2023-11-19T07:41:34;9.85;;;3.30;;
20491;SDS011;10404;51.468;6.762;2023-11-19T07:44:00;10.00;;;4.50;;
20491;SDS011;10404;51.468;6.762;2023-11-19T07:46:25;12.98;;;3.28;;
20491;SDS011;10404;51.468;6.762;2023-11-19T07:48:54;10.30;;;4.07;;
20491;SDS011;10404;51.468;6.762;2023-11-19T07:51:19;8.73;;;3.60;;
20491;SDS011;10404;51.468;6.762;2023-11-19T07:53:45;8.30;;;2.60;;
20491;SDS011;10404;51.468;6.762;2023-11-19T07:56:11;8.20;;;3.78;;
20491;SDS011;10404;51.468;6.762;2023-11-19T07:58:37;8.23;;;3.55;;
20491;SDS011;10404;51.468;6.762;2023-11-19T08:01:03;11.95;;;5.82;;
20491;SDS011;10404;51.468;6.762;2023-11-19T08:03:29;9.02;;;2.95;;
20491;SDS011;10404;51.468;6.762;2023-11-19T08:05:55;12.57;;;3.92;;
20491;SDS011;10404;51.468;6.762;2023-11-19T08:08:24;11.02;;;2.80;;
20491;SDS011;10404;51.468;6.762;2023-11-19T08:10:50;8.65;;;4.22;;
20491;SDS011;10404;51.468;6.762;2023-11-19T08:13:17;10.75;;;2.95;;
20491;SDS011;10404;51.468;6.762;2023-11-19T08:15:43;11.35;;;2.95;;
20491;SDS011;10404;51.468;6.762;2023-11-19T08:18:09;10.75;;;3.70;;
20491;SDS011;10404;51.468;6.762;2023-11-19T08:20:35;8.73;;;3.55;;
20491;SDS011;10404;51.468;6.762;2023-11-19T08:23:07;9.20;;;4.35;;
20491;SDS011;10404;51.468;6.762;2023-11-19T08:25:33;11.25;;;4.00;;
20491;SDS011;10404;51.468;6.762;2023-11-19T08:27:59;10.45;;;4.15;;
20491;SDS011;10404;51.468;6.762;2023-11-19T08:30:25;8.88;;;3.10;;
20491;SDS011;10404;51.468;6.762;2023-11-19T08:32:52;10.45;;;3.80;;
20491;SDS011;10404;51.468;6.762;2023-11-19T08:35:17;15.02;;;4.28;;
20491;SDS011;10404;51.468;6.762;2023-11-19T08:37:43;12.38;;;3.72;;
20491;SDS011;10404;51.468;6.762;2023-11-19T08:40:10;13.25;;;3.38;;
20491;SDS011;10404;51.468;6.762;2023-11-19T08:42:37;12.25;;;3.00;;
20491;SDS011;10404;51.468;6.762;2023-11-19T08:45:04;12.35;;;4.13;;
20491;SDS011;10404;51.468;6.762;2023-11-19T08:47:30;9.45;;;2.53;;
20491;SDS011;10404;51.468;6.762;2023-11-19T08:49:55;12.65;;;4.03;;
20491;SDS011;10404;51.468;6.762;2023-11-19T08:52:21;14.73;;;4.05;;
20491;SDS011;10404;51.468;6.762;2023-11-19T08:54:47;13.35;;;4.28;;
20491;SDS011;10404;51.468;6.762;2023-11-19T08:57:13;15.48;;;3.97;;
20491;SDS011;10404;51.468;6.762;2023-11-19T08:59:39;13.35;;;3.40;;
20491;SDS011;10404;51.468;6.762;2023-11-19T09:02:05;13.85;;;3.92;;
20491;SDS011;10404;51.468;6.762;2023-11-19T09:04:31;17.92;;;4.07;;
20491;SDS011;10404;51.468;6.762;2023-11-19T09:06:58;13.35;;;3.08;;
20491;SDS011;10404;51.468;6.762;2023-11-19T09:09:23;9.98;;;3.22;;
20491;SDS011;10404;51.468;6.762;2023-11-19T09:11:49;13.73;;;3.35;;
20491;SDS011;10404;51.468;6.762;2023-11-19T09:14:15;10.65;;;3.00;;
20491;SDS011;10404;51.468;6.762;2023-11-19T09:16:41;12.13;;;3.35;;
20491;SDS011;10404;51.468;6.762;2023-11-19T09:19:06;12.57;;;4.38;;
20491;SDS011;10404;51.468;6.762;2023-11-19T09:21:32;10.48;;;3.47;;
20491;SDS011;10404;51.468;6.762;2023-11-19T09:23:59;10.02;;;4.05;;
20491;SDS011;10404;51.468;6.762;2023-11-19T09:26:25;9.80;;;3.05;;
20491;SDS011;10404;51.468;6.762;2023-11-19T09:28:50;9.60;;;3.42;;
20491;SDS011;10404;51.468;6.762;2023-11-19T09:31:16;11.32;;;3.58;;
20491;SDS011;10404;51.468;6.762;2023-11-19T09:33:46;8.50;;;2.95;;
20491;SDS011;10404;51.468;6.762;2023-11-19T09:36:12;9.50;;;4.28;;
20491;SDS011;10404;51.468;6.762;2023-11-19T09:38:42;14.30;;;4.13;;
20491;SDS011;10404;51.468;6.762;2023-11-19T09:41:09;13.80;;;3.53;;
20491;SDS011;10404;51.468;6.762;2023-11-19T09:43:41;13.52;;;3.55;;
20491;SDS011;10404;51.468;6.762;2023-11-19T09:46:10;14.43;;;4.65;;
20491;SDS011;10404;51.468;6.762;2023-11-19T09:48:40;9.63;;;3.58;;
20491;SDS011;10404;51.468;6.762;2023-11-19T09:51:07;11.20;;;4.57;;
20491;SDS011;10404;51.468;6.762;2023-11-19T09:53:36;11.60;;;3.25;;
20491;SDS011;10404;51.468;6.762;2023-11-19T09:56:03;11.25;;;3.58;;
20491;SDS011;10404;51.468;6.762;2023-11-19T09:58:30;12.25;;;3.75;;
20491;SDS011;10404;51.468;6.762;2023-11-19T10:00:59;13.75;;;4.53;;
20491;SDS011;10404;51.468;6.762;2023-11-19T10:03:27;13.20;;;3.55;;
20491;SDS011;10404;51.468;6.762;2023-11-19T10:06:03;9.57;;;3.92;;
20491;SDS011;10404;51.468;6.762;2023-11-19T10:08:29;13.85;;;3.22;;
20491;SDS011;10404;51.468;6.762;2023-11-19T10:10:55;9.43;;;6.55;;
20491;SDS011;10404;51.468;6.762;2023-11-19T10:13:25;13.15;;;4.05;;
20491;SDS011;10404;51.468;6.762;2023-11-19T10:15:56;10.77;;;4.40;;
20491;SDS011;10404;51.468;6.762;2023-11-19T10:18:25;15.65;;;5.18;;
20491;SDS011;10404;51.468;6.762;2023-11-19T10:20:55;11.10;;;6.05;;
20491;SDS011;10404;51.468;6.762;2023-11-19T10:23:21;12.75;;;3.70;;
20491;SDS011;10404;51.468;6.762;2023-11-19T10:25:46;12.45;;;3.13;;
20491;SDS011;10404;51.468;6.762;2023-11-19T10:28:14;9.23;;;3.60;;
20491;SDS011;10404;51.468;6.762;2023-11-19T10:30:43;12.90;;;3.97;;
20491;SDS011;10404;51.468;6.762;2023-11-19T10:33:12;8.30;;;3.90;;
20491;SDS011;10404;51.468;6.762;2023-11-19T10:38:23;13.25;;;4.40;;
20491;SDS011;10404;51.468;6.762;2023-11-19T10:40:49;11.82;;;4.60;;
20491;SDS011;10404;51.468;6.762;2023-11-19T10:43:16;14.93;;;4.78;;
20491;SDS011;10404;51.468;6.762;2023-11-19T10:45:43;12.85;;;3.85;;
20491;SDS011;10404;51.468;6.762;2023-11-19T10:48:09;7.80;;;3.28;;
20491;SDS011;10404;51.468;6.762;2023-11-19T10:50:36;11.48;;;3.88;;
20491;SDS011;10404;51.468;6.762;2023-11-19T10:53:03;13.48;;;3.67;;
20491;SDS011;10404;51.468;6.762;2023-11-19T10:55:30;13.90;;;3.25;;
20491;SDS011;10404;51.468;6.762;2023-11-19T10:58:00;15.50;;;5.25;;
20491;SDS011;10404;51.468;6.762;2023-11-19T11:00:29;12.95;;;3.65;;
20491;SDS011;10404;51.468;6.762;2023-11-19T11:03:01;12.90;;;4.43;;
20491;SDS011;10404;51.468;6.762;2023-11-19T11:05:27;13.68;;;3.65;;
20491;SDS011;10404;51.468;6.762;2023-11-19T11:07:57;9.77;;;4.32;;
20491;SDS011;10404;51.468;6.762;2023-11-19T11:10:25;14.10;;;3.85;;
20491;SDS011;10404;51.468;6.762;2023-11-19T11:12:51;16.15;;;4.32;;
20491;SDS011;10404;51.468;6.762;2023-11-19T11:15:24;9.68;;;4.40;;
20491;SDS011;10404;51.468;6.762;2023-11-19T11:17:55;9.95;;;3.67;;
20491;SDS011;10404;51.468;6.762;2023-11-19T11:20:25;10.25;;;2.60;;
20491;SDS011;10404;51.468;6.762;2023-11-19T11:23:01;16.08;;;4.95;;
20491;SDS011;10404;51.468;6.762;2023-11-19T11:39:47;11.93;;;3.50;;
20491;SDS011;10404;51.468;6.762;2023-11-19T11:47:25;12.88;;;4.45;;
20491;SDS011;10404;51.468;6.762;2023-11-19T11:49:51;10.85;;;3.67;;
20491;SDS011;10404;51.468;6.762;2023-11-19T11:52:17;14.02;;;3.97;;
20491;SDS011;10404;51.468;6.762;2023-11-19T11:54:43;9.93;;;3.17;;
20491;SDS011;10404;51.468;6.762;2023-11-19T11:59:37;13.05;;;3.63;;
20491;SDS011;10404;51.468;6.762;2023-11-19T12:02:09;10.38;;;4.65;;
20491;SDS011;10404;51.468;6.762;2023-11-19T12:04:36;10.35;;;3.80;;
20491;SDS011;10404;51.468;6.762;2023-11-19T12:07:12;13.27;;;4.35;;
20491;SDS011;10404;51.468;6.762;2023-11-19T12:09:42;7.28;;;2.83;;
20491;SDS011;10404;51.468;6.762;2023-11-19T12:20:07;7.40;;;3.80;;
20491;SDS011;10404;51.468;6.762;2023-11-19T12:22:39;7.28;;;2.75;;
20491;SDS011;10404;51.468;6.762;2023-11-19T12:25:07;10.20;;;4.10;;
20491;SDS011;10404;51.468;6.762;2023-11-19T12:27:34;8.68;;;3.40;;
20491;SDS011;10404;51.468;6.762;2023-11-19T12:30:01;10.35;;;3.65;;
20491;SDS011;10404;51.468;6.762;2023-11-19T12:32:42;10.55;;;3.83;;
20491;SDS011;10404;51.468;6.762;2023-11-19T12:35:10;9.93;;;4.72;;
20491;SDS011;10404;51.468;6.762;2023-11-19T12:37:43;8.63;;;2.85;;
20491;SDS011;10404;51.468;6.762;2023-11-19T12:40:20;9.30;;;4.03;;
20491;SDS011;10404;51.468;6.762;2023-11-19T12:42:56;9.82;;;3.58;;
20491;SDS011;10404;51.468;6.762;2023-11-19T12:45:22;10.63;;;3.35;;
20491;SDS011;10404;51.468;6.762;2023-11-19T12:48:12;9.13;;;2.90;;
20491;SDS011;10404;51.468;6.762;2023-11-19T12:53:25;10.43;;;3.53;;
20491;SDS011;10404;51.468;6.762;2023-11-19T12:55:52;6.63;;;3.03;;
20491;SDS011;10404;51.468;6.762;2023-11-19T12:58:31;13.23;;;3.45;;
20491;SDS011;10404;51.468;6.762;2023-11-19T13:03:30;7.07;;;3.53;;
20491;SDS011;10404;51.468;6.762;2023-11-19T13:06:04;8.82;;;3.92;;
20491;SDS011;10404;51.468;6.762;2023-11-19T13:08:45;9.02;;;2.42;;
20491;SDS011;10404;51.468;6.762;2023-11-19T13:11:15;8.30;;;4.28;;
20491;SDS011;10404;51.468;6.762;2023-11-19T13:16:22;12.88;;;3.50;;
20491;SDS011;10404;51.468;6.762;2023-11-19T13:18:48;9.52;;;2.92;;
20491;SDS011;10404;51.468;6.762;2023-11-19T13:21:13;6.75;;;2.92;;
20491;SDS011;10404;51.468;6.762;2023-11-19T13:23:39;7.53;;;2.95;;
20491;SDS011;10404;51.468;6.762;2023-11-19T13:26:05;7.93;;;3.58;;
20491;SDS011;10404;51.468;6.762;2023-11-19T13:28:31;5.32;;;2.30;;
20491;SDS011;10404;51.468;6.762;2023-11-19T13:30:56;8.00;;;4.78;;
20491;SDS011;10404;51.468;6.762;2023-11-19T13:33:23;7.80;;;4.07;;
20491;SDS011;10404;51.468;6.762;2023-11-19T13:35:48;8.82;;;3.35;;
20491;SDS011;10404;51.468;6.762;2023-11-19T13:38:14;6.78;;;3.15;;
20491;SDS011;10404;51.468;6.762;2023-11-19T13:40:39;10.55;;;3.05;;
20491;SDS011;10404;51.468;6.762;2023-11-19T13:43:05;7.65;;;3.28;;
20491;SDS011;10404;51.468;6.762;2023-11-19T13:45:31;9.25;;;2.72;;
20491;SDS011;10404;51.468;6.762;2023-11-19T13:47:57;9.27;;;4.32;;
20491;SDS011;10404;51.468;6.762;2023-11-19T13:50:22;7.10;;;3.38;;
20491;SDS011;10404;51.468;6.762;2023-11-19T13:52:48;12.32;;;3.72;;
20491;SDS011;10404;51.468;6.762;2023-11-19T13:55:14;11.95;;;3.55;;
20491;SDS011;10404;51.468;6.762;2023-11-19T13:57:40;10.48;;;3.50;;
20491;SDS011;10404;51.468;6.762;2023-11-19T14:00:07;6.38;;;3.63;;
20491;SDS011;10404;51.468;6.762;2023-11-19T14:02:40;11.35;;;3.50;;
20491;SDS011;10404;51.468;6.762;2023-11-19T14:07:32;10.48;;;3.38;;
20491;SDS011;10404;51.468;6.762;2023-11-19T14:09:58;9.65;;;3.65;;
20491;SDS011;10404;51.468;6.762;2023-11-19T14:12:24;10.40;;;3.90;;
20491;SDS011;10404;51.468;6.762;2023-11-19T14:14:50;7.70;;;2.63;;
20491;SDS011;10404;51.468;6.762;2023-11-19T14:17:15;9.82;;;3.78;;
20491;SDS011;10404;51.468;6.762;2023-11-19T14:19:41;9.23;;;3.30;;
20491;SDS011;10404;51.468;6.762;2023-11-19T14:22:07;8.25;;;3.72;;
20491;SDS011;10404;51.468;6.762;2023-11-19T14:24:33;8.45;;;4.28;;
20491;SDS011;10404;51.468;6.762;2023-11-19T14:26:59;10.40;;;3.80;;
20491;SDS011;10404;51.468;6.762;2023-11-19T14:29:26;8.80;;;4.10;;
20491;SDS011;10404;51.468;6.762;2023-11-19T14:31:53;7.60;;;3.08;;
20491;SDS011;10404;51.468;6.762;2023-11-19T14:34:19;8.27;;;4.53;;
20491;SDS011;10404;51.468;6.762;2023-11-19T14:36:45;5.57;;;2.67;;
20491;SDS011;10404;51.468;6.762;2023-11-19T14:39:11;8.48;;;3.90;;
20491;SDS011;10404;51.468;6.762;2023-11-19T14:41:37;6.22;;;2.72;;
20491;SDS011;10404;51.468;6.762;2023-11-19T14:44:04;5.65;;;3.50;;
20491;SDS011;10404;51.468;6.762;2023-11-19T14:46:30;7.18;;;2.22;;
20491;SDS011;10404;51.468;6.762;2023-11-19T14:48:56;7.82;;;4.03;;
20491;SDS011;10404;51.468;6.762;2023-11-19T14:51:21;8.70;;;4.00;;
20491;SDS011;10404;51.468;6.762;2023-11-19T14:53:47;9.77;;;3.17;;
20491;SDS011;10404;51.468;6.762;2023-11-19T14:56:13;9.70;;;3.03;;
20491;SDS011;10404;51.468;6.762;2023-11-19T14:58:39;10.70;;;3.20;;
20491;SDS011;10404;51.468;6.762;2023-11-19T15:01:04;10.48;;;4.13;;
20491;SDS011;10404;51.468;6.762;2023-11-19T15:03:32;10.65;;;3.70;;
20491;SDS011;10404;51.468;6.762;2023-11-19T15:05:58;10.40;;;4.28;;
20491;SDS011;10404;51.468;6.762;2023-11-19T15:08:27;7.90;;;3.88;;
20491;SDS011;10404;51.468;6.762;2023-11-19T15:10:52;9.52;;;3.75;;
20491;SDS011;10404;51.468;6.762;2023-11-19T15:13:19;11.77;;;3.42;;
20491;SDS011;10404;51.468;6.762;2023-11-19T15:15:44;12.50;;;2.95;;
20491;SDS011;10404;51.468;6.762;2023-11-19T15:18:10;9.65;;;4.13;;
20491;SDS011;10404;51.468;6.762;2023-11-19T15:20:36;7.28;;;3.38;;
20491;SDS011;10404;51.468;6.762;2023-11-19T15:23:02;9.38;;;3.72;;
20491;SDS011;10404;51.468;6.762;2023-11-19T15:25:27;8.27;;;3.78;;
20491;SDS011;10404;51.468;6.762;2023-11-19T15:27:53;7.38;;;3.03;;
20491;SDS011;10404;51.468;6.762;2023-11-19T15:30:20;8.70;;;5.13;;
20491;SDS011;10404;51.468;6.762;2023-11-19T15:32:46;7.88;;;3.00;;
20491;SDS011;10404;51.468;6.762;2023-11-19T15:35:12;8.93;;;5.25;;
20491;SDS011;10404;51.468;6.762;2023-11-19T15:37:37;12.07;;;3.10;;
20491;SDS011;10404;51.468;6.762;2023-11-19T15:40:08;9.10;;;3.30;;
20491;SDS011;10404;51.468;6.762;2023-11-19T15:42:37;8.55;;;3.53;;
20491;SDS011;10404;51.468;6.762;2023-11-19T15:45:04;13.45;;;3.97;;
20491;SDS011;10404;51.468;6.762;2023-11-19T15:47:32;8.00;;;2.92;;
20491;SDS011;10404;51.468;6.762;2023-11-19T15:49:59;12.00;;;4.55;;
20491;SDS011;10404;51.468;6.762;2023-11-19T15:52:35;12.57;;;4.32;;
20491;SDS011;10404;51.468;6.762;2023-11-19T15:55:00;9.05;;;4.65;;
20491;SDS011;10404;51.468;6.762;2023-11-19T15:57:26;8.40;;;4.00;;
20491;SDS011;10404;51.468;6.762;2023-11-19T15:59:52;9.23;;;3.22;;
20491;SDS011;10404;51.468;6.762;2023-11-19T16:02:17;8.82;;;4.68;;
20491;SDS011;10404;51.468;6.762;2023-11-19T16:04:43;7.85;;;2.75;;
20491;SDS011;10404;51.468;6.762;2023-11-19T16:07:12;11.15;;;5.32;;
20491;SDS011;10404;51.468;6.762;2023-11-19T16:09:38;9.48;;;4.72;;
20491;SDS011;10404;51.468;6.762;2023-11-19T16:12:04;8.60;;;4.80;;
20491;SDS011;10404;51.468;6.762;2023-11-19T16:14:30;6.90;;;4.20;;
20491;SDS011;10404;51.468;6.762;2023-11-19T16:16:55;8.38;;;3.70;;
20491;SDS011;10404;51.468;6.762;2023-11-19T16:19:21;9.93;;;4.60;;
20491;SDS011;10404;51.468;6.762;2023-11-19T16:21:46;6.82;;;3.13;;
20491;SDS011;10404;51.468;6.762;2023-11-19T16:24:12;9.85;;;4.57;;
20491;SDS011;10404;51.468;6.762;2023-11-19T16:26:38;10.77;;;3.88;;
20491;SDS011;10404;51.468;6.762;2023-11-19T16:29:03;10.75;;;3.45;;
20491;SDS011;10404;51.468;6.762;2023-11-19T16:31:29;13.18;;;3.58;;
20491;SDS011;10404;51.468;6.762;2023-11-19T16:33:54;9.25;;;3.05;;
20491;SDS011;10404;51.468;6.762;2023-11-19T16:36:20;8.95;;;3.45;;
20491;SDS011;10404;51.468;6.762;2023-11-19T16:38:47;10.75;;;3.60;;
20491;SDS011;10404;51.468;6.762;2023-11-19T16:41:13;11.13;;;3.92;;
20491;SDS011;10404;51.468;6.762;2023-11-19T16:46:15;7.45;;;3.60;;
20491;SDS011;10404;51.468;6.762;2023-11-19T16:48:41;6.68;;;2.42;;
20491;SDS011;10404;51.468;6.762;2023-11-19T16:51:13;7.82;;;3.05;;
20491;SDS011;10404;51.468;6.762;2023-11-19T16:53:46;9.93;;;3.08;;
20491;SDS011;10404;51.468;6.762;2023-11-19T16:56:21;11.20;;;2.92;;
20491;SDS011;10404;51.468;6.762;2023-11-19T16:58:46;8.57;;;3.17;;
20491;SDS011;10404;51.468;6.762;2023-11-19T17:01:14;6.22;;;2.92;;
20491;SDS011;10404;51.468;6.762;2023-11-19T17:03:40;10.35;;;2.40;;
20491;SDS011;10404;51.468;6.762;2023-11-19T17:06:06;8.75;;;3.35;;
20491;SDS011;10404;51.468;6.762;2023-11-19T17:08:35;10.63;;;3.45;;
20491;SDS011;10404;51.468;6.762;2023-11-19T17:11:03;6.72;;;2.78;;
20491;SDS011;10404;51.468;6.762;2023-11-19T17:13:32;10.23;;;2.78;;
20491;SDS011;10404;51.468;6.762;2023-11-19T17:15:59;11.35;;;3.28;;
20491;SDS011;10404;51.468;6.762;2023-11-19T17:18:25;10.85;;;2.63;;
20491;SDS011;10404;51.468;6.762;2023-11-19T17:20:51;9.80;;;3.92;;
20491;SDS011;10404;51.468;6.762;2023-11-19T17:23:18;7.40;;;2.40;;
20491;SDS011;10404;51.468;6.762;2023-11-19T17:25:46;6.53;;;3.30;;
20491;SDS011;10404;51.468;6.762;2023-11-19T17:28:12;8.73;;;2.45;;
20491;SDS011;10404;51.468;6.762;2023-11-19T17:30:38;8.77;;;3.58;;
20491;SDS011;10404;51.468;6.762;2023-11-19T17:33:07;10.77;;;4.28;;
20491;SDS011;10404;51.468;6.762;2023-11-19T17:35:34;9.45;;;2.70;;
20491;SDS011;10404;51.468;6.762;2023-11-19T17:38:01;7.53;;;2.67;;
20491;SDS011;10404;51.468;6.762;2023-11-19T17:40:30;9.52;;;2.92;;
20491;SDS011;10404;51.468;6.762;2023-11-19T17:42:56;10.20;;;2.65;;
20491;SDS011;10404;51.468;6.762;2023-11-19T17:45:25;10.30;;;2.85;;
20491;SDS011;10404;51.468;6.762;2023-11-19T17:47:51;8.48;;;2.97;;
20491;SDS011;10404;51.468;6.762;2023-11-19T17:50:17;10.63;;;3.63;;
20491;SDS011;10404;51.468;6.762;2023-11-19T17:52:45;9.02;;;2.63;;
20491;SDS011;10404;51.468;6.762;2023-11-19T17:55:11;6.90;;;2.65;;
20491;SDS011;10404;51.468;6.762;2023-11-19T17:57:43;7.70;;;2.67;;
20491;SDS011;10404;51.468;6.762;2023-11-19T18:00:10;5.93;;;2.47;;
20491;SDS011;10404;51.468;6.762;2023-11-19T18:02:44;9.27;;;3.00;;
20491;SDS011;10404;51.468;6.762;2023-11-19T18:05:19;7.07;;;2.65;;
20491;SDS011;10404;51.468;6.762;2023-11-19T18:07:45;9.57;;;2.67;;
20491;SDS011;10404;51.468;6.762;2023-11-19T18:10:12;9.30;;;3.35;;
20491;SDS011;10404;51.468;6.762;2023-11-19T18:12:38;11.25;;;2.72;;